Time;durP1;ratioP1;P1;durP2;ratioP2;P2;SDS_P1;SDS_P2;PMS_P1;PMS_P2;Temp;Humidity;BMP_temperature;BMP_pressure;BME280_temperature;BME280_humidity;BME280_pressure;Samples;Min_cycle;Max_cycle;Signal;HPM_P1;HPM_P2
2023/09/08 00:01:00;;;;;;;3.00;2.70;;;22.10;99.90;;;;;;5072446;28;20082;-43
2023/09/08 00:03:25;;;;;;;3.80;2.78;;;22.10;99.90;;;;;;5072535;28;20024;-38
2023/09/08 00:05:51;;;;;;;2.88;2.38;;;22.10;99.90;;;;;;5072497;28;20355;-39
2023/09/08 00:08:17;;;;;;;3.05;2.70;;;22.10;99.90;;;;;;5072492;28;20091;-40
2023/09/08 00:10:42;;;;;;;2.88;2.38;;;22.10;99.90;;;;;;5072207;28;20025;-39
2023/09/08 00:13:08;;;;;;;3.17;2.63;;;22.10;99.90;;;;;;5072236;28;20543;-40
2023/09/08 00:15:34;;;;;;;3.22;2.90;;;22.10;99.90;;;;;;5072480;28;20029;-39
2023/09/08 00:18:00;;;;;;;3.33;3.03;;;22.10;99.90;;;;;;5072155;28;20025;-39
2023/09/08 00:20:26;;;;;;;4.90;2.60;;;22.10;99.90;;;;;;5071965;28;20120;-43
2023/09/08 00:22:51;;;;;;;2.53;2.25;;;22.10;99.90;;;;;;5072208;28;20028;-41
2023/09/08 00:25:17;;;;;;;2.67;2.33;;;22.10;99.90;;;;;;5072086;28;20482;-40
2023/09/08 00:27:43;;;;;;;4.03;2.88;;;22.10;99.90;;;;;;5072026;28;20530;-37
2023/09/08 00:30:09;;;;;;;2.92;2.63;;;22.10;99.90;;;;;;5071854;28;20027;-41
2023/09/08 00:32:35;;;;;;;3.15;2.55;;;22.10;99.90;;;;;;5072034;28;20032;-37
2023/09/08 00:35:00;;;;;;;3.05;2.60;;;22.10;99.90;;;;;;5071957;28;20382;-40
2023/09/08 00:37:26;;;;;;;3.20;2.60;;;22.10;99.90;;;;;;5071921;28;20050;-39
2023/09/08 00:39:51;;;;;;;3.88;2.70;;;22.10;99.90;;;;;;5071637;28;20032;-42
2023/09/08 00:42:17;;;;;;;2.80;2.50;;;22.10;99.90;;;;;;5071802;28;20137;-40
2023/09/08 00:44:42;;;;;;;3.35;2.60;;;22.10;99.90;;;;;;5071740;28;20032;-40
2023/09/08 00:47:08;;;;;;;3.33;2.67;;;22.10;99.90;;;;;;5071763;28;20024;-40
2023/09/08 00:49:34;;;;;;;3.33;2.63;;;22.10;99.90;;;;;;5071594;28;20501;-47
2023/09/08 00:51:59;;;;;;;2.60;2.40;;;22.10;99.90;;;;;;5071685;28;20478;-42
2023/09/08 00:54:25;;;;;;;3.55;2.70;;;22.10;99.90;;;;;;5071569;28;20024;-39
2023/09/08 00:56:57;;;;;;;3.10;2.67;;;22.10;99.90;;;;;;5072068;28;20055;-39
2023/09/08 00:59:24;;;;;;;3.20;2.60;;;22.00;99.90;;;;;;5072733;28;20104;-39
2023/09/08 01:01:50;;;;;;;3.85;2.83;;;22.10;99.90;;;;;;5074139;28;20073;-39
2023/09/08 01:04:16;;;;;;;4.15;2.53;;;22.10;99.90;;;;;;5071843;28;20028;-40
2023/09/08 01:06:42;;;;;;;2.97;2.50;;;22.10;99.90;;;;;;5071138;28;20055;-37
2023/09/08 01:09:08;;;;;;;4.13;3.03;;;22.00;99.90;;;;;;5071314;28;20025;-39
2023/09/08 01:11:34;;;;;;;2.60;2.40;;;22.10;99.90;;;;;;5071425;28;20367;-38
2023/09/08 01:13:59;;;;;;;3.08;2.78;;;22.00;99.90;;;;;;5071325;28;20016;-39
2023/09/08 01:16:25;;;;;;;3.15;2.63;;;22.10;99.90;;;;;;5071330;28;20082;-41
2023/09/08 01:18:52;;;;;;;6.30;2.55;;;22.00;99.90;;;;;;5071116;28;20033;-39
2023/09/08 01:21:20;;;;;;;3.17;2.72;;;22.00;99.90;;;;;;5071239;28;20021;-39
2023/09/08 01:23:51;;;;;;;4.38;2.90;;;22.00;99.90;;;;;;5071291;28;20025;-40
2023/09/08 01:26:21;;;;;;;3.17;2.53;;;22.00;99.90;;;;;;5071224;28;20478;-36
2023/09/08 01:28:49;;;;;;;2.70;2.22;;;22.00;99.90;;;;;;5071146;28;20052;-40
2023/09/08 01:31:16;;;;;;;2.88;2.33;;;22.00;99.90;;;;;;5071104;28;20056;-39
2023/09/08 01:33:42;;;;;;;4.25;2.75;;;22.00;99.90;;;;;;5071673;28;20036;-38
2023/09/08 01:36:08;;;;;;;4.10;2.72;;;22.00;99.90;;;;;;5072044;28;20086;-38
2023/09/08 01:38:34;;;;;;;3.83;2.67;;;22.00;99.90;;;;;;5071776;28;20031;-41
2023/09/08 01:41:03;;;;;;;4.07;2.40;;;22.00;99.90;;;;;;5071699;28;20032;-39
2023/09/08 01:43:29;;;;;;;3.38;3.00;;;22.00;99.90;;;;;;5071708;28;20116;-39
2023/09/08 01:45:54;;;;;;;3.35;2.92;;;22.00;99.90;;;;;;5071133;28;20100;-38
2023/09/08 01:48:20;;;;;;;3.20;2.90;;;22.00;99.90;;;;;;5071104;28;20021;-38
2023/09/08 01:50:47;;;;;;;3.85;2.70;;;22.00;99.90;;;;;;5069624;28;20099;-37
2023/09/08 01:53:13;;;;;;;4.35;2.65;;;22.00;99.90;;;;;;5070934;28;20107;-38
2023/09/08 01:55:38;;;;;;;3.13;2.63;;;22.00;99.90;;;;;;5069650;28;20548;-36
2023/09/08 01:58:04;;;;;;;4.00;2.33;;;22.00;99.90;;;;;;5071157;28;20036;-38
2023/09/08 02:00:31;;;;;;;3.58;2.83;;;22.00;99.90;;;;;;5071126;28;20126;-38
2023/09/08 02:02:57;;;;;;;3.45;2.80;;;22.00;99.90;;;;;;5071217;28;20367;-39
2023/09/08 02:05:22;;;;;;;2.80;2.60;;;21.90;99.90;;;;;;5070944;28;20032;-42
2023/09/08 02:07:49;;;;;;;3.05;2.60;;;21.90;99.90;;;;;;5070870;28;20078;-39
2023/09/08 02:10:16;;;;;;;3.33;2.97;;;22.00;99.90;;;;;;5071057;28;20028;-39
2023/09/08 02:12:41;;;;;;;3.03;2.58;;;22.00;99.90;;;;;;5069940;28;20063;-41
2023/09/08 02:15:08;;;;;;;3.53;2.78;;;22.00;99.90;;;;;;5070789;28;20105;-39
2023/09/08 02:17:34;;;;;;;3.00;2.70;;;21.90;99.90;;;;;;5070841;28;20021;-37
2023/09/08 02:20:00;;;;;;;3.83;2.65;;;21.90;99.90;;;;;;5074169;28;20035;-37
2023/09/08 02:22:25;;;;;;;3.38;2.83;;;21.90;99.90;;;;;;5074493;28;20612;-42
2023/09/08 02:24:51;;;;;;;4.15;2.50;;;21.90;99.90;;;;;;5074519;28;20032;-40
2023/09/08 02:27:17;;;;;;;3.88;3.25;;;21.90;99.90;;;;;;5074515;28;20021;-40
2023/09/08 02:29:43;;;;;;;2.75;2.53;;;21.90;99.90;;;;;;5074125;28;20032;-40
2023/09/08 02:32:08;;;;;;;3.72;2.90;;;21.90;99.90;;;;;;5074509;28;20028;-36
2023/09/08 02:34:36;;;;;;;2.70;2.50;;;21.90;99.90;;;;;;5074230;28;20359;-37
2023/09/08 02:37:02;;;;;;;3.95;2.88;;;21.90;99.90;;;;;;5074193;28;20028;-36
2023/09/08 02:39:28;;;;;;;4.25;2.80;;;21.90;99.90;;;;;;5073950;28;20040;-39
2023/09/08 02:41:54;;;;;;;3.50;2.40;;;21.90;99.90;;;;;;5074198;28;20100;-37
2023/09/08 02:44:21;;;;;;;4.03;3.08;;;21.90;99.90;;;;;;5074055;28;20027;-40
2023/09/08 02:46:47;;;;;;;3.55;2.70;;;21.90;99.90;;;;;;5074046;28;20079;-40
2023/09/08 02:49:13;;;;;;;6.32;2.70;;;21.90;99.90;;;;;;5073880;28;20390;-39
2023/09/08 02:51:39;;;;;;;3.08;2.63;;;21.90;99.90;;;;;;5073903;28;20124;-38
2023/09/08 02:54:04;;;;;;;4.55;2.70;;;21.90;99.90;;;;;;5073853;28;20059;-38
2023/09/08 02:56:30;;;;;;;4.22;2.90;;;21.90;99.90;;;;;;5073926;28;20021;-38
2023/09/08 02:58:55;;;;;;;4.78;2.85;;;21.90;99.90;;;;;;5073669;28;20423;-39
2023/09/08 03:01:21;;;;;;;3.88;2.65;;;21.90;99.90;;;;;;5073682;28;20386;-39
2023/09/08 03:03:48;;;;;;;4.88;2.83;;;21.90;99.90;;;;;;5073833;28;20025;-39
2023/09/08 03:06:15;;;;;;;4.30;3.00;;;21.90;99.90;;;;;;5073578;28;20016;-40
2023/09/08 03:08:41;;;;;;;3.20;2.90;;;21.90;99.90;;;;;;5073637;28;20081;-38
2023/09/08 03:11:08;;;;;;;4.22;3.28;;;21.90;99.90;;;;;;5073520;28;20033;-40
2023/09/08 03:13:34;;;;;;;3.67;2.88;;;21.90;99.90;;;;;;5073537;28;20035;-40
2023/09/08 03:16:06;;;;;;;3.58;2.88;;;21.90;99.90;;;;;;5073521;28;20025;-48
2023/09/08 03:18:36;;;;;;;3.88;2.97;;;21.90;99.90;;;;;;5072307;28;20048;-40
2023/09/08 03:21:08;;;;;;;4.20;3.05;;;21.90;99.90;;;;;;5073225;28;20024;-42
2023/09/08 03:23:45;;;;;;;3.65;3.03;;;21.90;99.90;;;;;;5073686;28;20031;-40
2023/09/08 03:26:10;;;;;;;4.40;3.10;;;21.80;99.90;;;;;;5073333;28;20493;-40
2023/09/08 03:28:37;;;;;;;4.03;3.05;;;21.80;99.90;;;;;;5072912;28;20063;-38
2023/09/08 03:31:03;;;;;;;4.32;2.58;;;21.80;99.90;;;;;;5073546;28;20148;-39
2023/09/08 03:33:29;;;;;;;3.00;2.50;;;21.80;99.90;;;;;;5073478;28;20520;-37
2023/09/08 03:35:55;;;;;;;4.05;3.05;;;21.80;99.90;;;;;;5073168;28;20540;-42
2023/09/08 03:38:21;;;;;;;3.15;2.85;;;21.80;99.90;;;;;;5073279;28;20069;-40
2023/09/08 03:40:47;;;;;;;4.30;3.22;;;21.80;99.90;;;;;;5072952;28;20071;-39
2023/09/08 03:43:12;;;;;;;4.32;2.78;;;21.80;99.90;;;;;;5074433;28;20036;-37
2023/09/08 03:45:38;;;;;;;3.95;2.47;;;21.80;99.90;;;;;;5073349;28;20032;-39
2023/09/08 03:48:04;;;;;;;4.95;3.00;;;21.80;99.90;;;;;;5072997;28;20029;-39
2023/09/08 03:50:30;;;;;;;4.03;2.97;;;21.80;99.90;;;;;;5072764;28;20035;-40
2023/09/08 03:52:56;;;;;;;3.53;2.95;;;21.80;99.90;;;;;;5072827;28;20031;-42
2023/09/08 03:55:21;;;;;;;4.28;2.92;;;21.80;99.90;;;;;;5072845;28;20057;-36
2023/09/08 03:57:47;;;;;;;4.00;2.85;;;21.80;99.90;;;;;;5072790;28;20102;-39
2023/09/08 04:00:19;;;;;;;3.55;3.03;;;21.80;99.90;;;;;;5072928;28;20545;-41
2023/09/08 04:02:45;;;;;;;5.70;3.05;;;21.80;99.90;;;;;;5072694;28;20378;-40
2023/09/08 04:05:10;;;;;;;3.78;3.10;;;21.80;99.90;;;;;;5072539;28;20470;-38
2023/09/08 04:07:37;;;;;;;5.88;2.45;;;21.80;99.90;;;;;;5072544;28;20021;-43
2023/09/08 04:10:03;;;;;;;3.22;2.80;;;21.80;99.90;;;;;;5072307;28;20035;-41
2023/09/08 04:12:29;;;;;;;3.67;2.53;;;21.80;99.90;;;;;;5072483;28;20055;-39
2023/09/08 04:14:54;;;;;;;3.65;2.60;;;21.80;99.90;;;;;;5072285;28;20064;-39
2023/09/08 04:17:20;;;;;;;3.15;2.63;;;21.70;99.90;;;;;;5072398;28;20078;-41
2023/09/08 04:19:45;;;;;;;3.40;2.88;;;21.80;99.90;;;;;;5071948;28;20047;-42
2023/09/08 04:22:11;;;;;;;3.55;2.53;;;21.80;99.90;;;;;;5072526;28;20027;-38
2023/09/08 04:24:38;;;;;;;3.97;2.90;;;21.70;99.90;;;;;;5072091;28;20024;-36
2023/09/08 04:27:04;;;;;;;3.00;2.67;;;21.70;99.90;;;;;;5072117;28;20039;-39
2023/09/08 04:29:29;;;;;;;4.53;2.80;;;21.70;99.90;;;;;;5071767;28;20017;-40
2023/09/08 04:31:55;;;;;;;4.25;2.70;;;21.70;99.90;;;;;;5072019;28;20024;-39
2023/09/08 04:34:21;;;;;;;4.10;2.80;;;21.70;99.90;;;;;;5071917;28;20064;-40
2023/09/08 04:36:46;;;;;;;3.38;3.00;;;21.70;99.90;;;;;;5071963;28;20024;-39
2023/09/08 04:39:12;;;;;;;2.90;2.60;;;21.70;99.90;;;;;;5071747;28;20029;-39
2023/09/08 04:41:38;;;;;;;4.32;3.22;;;21.70;99.90;;;;;;5071124;28;20107;-39
2023/09/08 04:44:04;;;;;;;8.23;3.00;;;21.70;99.90;;;;;;5071641;28;20081;-39
2023/09/08 04:46:30;;;;;;;3.35;2.92;;;21.70;99.90;;;;;;5071756;28;20037;-42
2023/09/08 04:48:56;;;;;;;3.25;2.80;;;21.70;99.90;;;;;;5071655;28;20024;-40
2023/09/08 04:51:22;;;;;;;4.07;2.65;;;21.70;99.90;;;;;;5071839;28;20103;-40
2023/09/08 04:53:47;;;;;;;7.70;3.05;;;21.70;99.90;;;;;;5071703;28;20024;-40
2023/09/08 04:56:14;;;;;;;3.67;2.65;;;21.70;99.90;;;;;;5071656;28;20122;-42
2023/09/08 04:58:39;;;;;;;4.47;3.08;;;21.70;99.90;;;;;;5071611;28;20020;-39
2023/09/08 05:01:05;;;;;;;4.40;3.00;;;21.70;99.90;;;;;;5072851;28;20027;-40
2023/09/08 05:03:31;;;;;;;4.78;3.17;;;21.70;99.90;;;;;;5072937;28;20087;-40
2023/09/08 05:05:57;;;;;;;4.57;3.15;;;21.70;99.90;;;;;;5071824;28;20419;-40
2023/09/08 05:08:22;;;;;;;3.38;3.03;;;21.70;99.90;;;;;;5071549;28;20098;-39
2023/09/08 05:10:48;;;;;;;2.92;2.63;;;21.70;99.90;;;;;;5071387;28;20017;-38
2023/09/08 05:13:16;;;;;;;5.63;2.90;;;21.70;99.90;;;;;;5071379;28;20477;-42
2023/09/08 05:15:43;;;;;;;6.47;3.03;;;21.70;99.90;;;;;;5071391;28;20030;-38
2023/09/08 05:18:09;;;;;;;4.53;3.00;;;21.70;99.90;;;;;;5071410;28;20078;-39
2023/09/08 05:20:35;;;;;;;5.70;3.00;;;21.70;99.90;;;;;;5071176;28;20028;-39
2023/09/08 05:23:00;;;;;;;7.15;3.05;;;21.70;99.90;;;;;;5071418;28;20073;-40
2023/09/08 05:25:26;;;;;;;4.43;3.45;;;21.60;99.90;;;;;;5071737;28;20082;-40
2023/09/08 05:27:51;;;;;;;4.40;3.15;;;21.60;99.90;;;;;;5071737;28;20373;-38
2023/09/08 05:30:17;;;;;;;3.20;2.90;;;21.60;99.90;;;;;;5071119;28;20079;-40
2023/09/08 05:32:43;;;;;;;3.67;2.97;;;21.70;99.90;;;;;;5071227;28;20389;-37
2023/09/08 05:35:08;;;;;;;4.15;3.13;;;21.60;99.90;;;;;;5071202;28;20036;-39
2023/09/08 05:37:34;;;;;;;4.72;3.05;;;21.60;99.90;;;;;;5069905;28;20024;-40
2023/09/08 05:40:00;;;;;;;4.55;3.03;;;21.60;99.90;;;;;;5070837;28;20386;-41
2023/09/08 05:42:25;;;;;;;3.28;2.72;;;21.60;99.90;;;;;;5071077;28;20024;-38
2023/09/08 05:44:51;;;;;;;3.75;2.97;;;21.60;99.90;;;;;;5071006;28;20109;-38
2023/09/08 05:47:17;;;;;;;4.50;3.60;;;21.60;99.90;;;;;;5071231;28;20025;-40
2023/09/08 05:49:42;;;;;;;4.65;2.95;;;21.60;99.90;;;;;;5070920;28;20029;-38
2023/09/08 05:52:08;;;;;;;3.75;3.05;;;21.60;99.90;;;;;;5072006;28;20028;-38
2023/09/08 05:54:34;;;;;;;3.20;2.70;;;21.60;99.90;;;;;;5074965;28;20037;-39
2023/09/08 05:56:59;;;;;;;4.05;3.20;;;21.60;99.90;;;;;;5075019;28;20025;-39
2023/09/08 05:59:25;;;;;;;3.67;2.92;;;21.60;99.90;;;;;;5074726;28;20506;-39
2023/09/08 06:01:50;;;;;;;4.88;3.13;;;21.60;99.90;;;;;;5074981;28;20028;-39
2023/09/08 06:04:16;;;;;;;3.95;3.10;;;21.60;99.90;;;;;;5074879;28;20095;-40
2023/09/08 06:06:42;;;;;;;3.90;2.90;;;21.60;99.90;;;;;;5074886;28;20021;-38
2023/09/08 06:09:08;;;;;;;4.13;2.80;;;21.60;99.90;;;;;;5074508;28;20036;-38
2023/09/08 06:11:34;;;;;;;4.43;3.15;;;21.60;99.90;;;;;;5074587;28;20107;-40
2023/09/08 06:14:00;;;;;;;2.80;2.50;;;21.60;99.90;;;;;;5074656;28;20510;-40
2023/09/08 06:16:26;;;;;;;3.33;2.90;;;21.60;99.90;;;;;;5074685;28;20055;-38
2023/09/08 06:18:51;;;;;;;3.53;3.05;;;21.60;99.90;;;;;;5074500;28;20089;-39
2023/09/08 06:21:17;;;;;;;3.50;3.03;;;21.60;99.90;;;;;;5074481;28;20111;-39
2023/09/08 06:23:43;;;;;;;3.47;3.10;;;21.60;99.90;;;;;;5074431;28;20033;-39
2023/09/08 06:26:08;;;;;;;4.65;3.20;;;21.60;99.90;;;;;;5074308;28;20017;-38
2023/09/08 06:28:35;;;;;;;3.33;3.03;;;21.60;99.90;;;;;;5074449;28;20103;-38
2023/09/08 06:31:01;;;;;;;3.90;2.97;;;21.60;99.90;;;;;;5074275;28;20386;-41
2023/09/08 06:33:26;;;;;;;3.08;2.70;;;21.60;99.90;;;;;;5074405;28;20036;-42
2023/09/08 06:35:53;;;;;;;3.10;2.70;;;21.60;99.90;;;;;;5074302;28;20077;-39
2023/09/08 06:38:19;;;;;;;3.53;2.50;;;21.60;99.90;;;;;;5074758;28;20035;-39
2023/09/08 06:40:45;;;;;;;3.35;2.40;;;21.60;99.90;;;;;;5073876;28;20016;-41
2023/09/08 06:43:10;;;;;;;3.03;2.55;;;21.60;99.90;;;;;;5074198;28;20052;-38
2023/09/08 06:45:42;;;;;;;4.75;3.10;;;21.70;99.90;;;;;;5072762;28;20047;-40
2023/09/08 06:48:07;;;;;;;4.18;2.90;;;21.60;99.90;;;;;;5074140;28;20056;-38
2023/09/08 06:50:33;;;;;;;3.63;2.88;;;21.60;99.90;;;;;;5074356;28;20067;-38
2023/09/08 06:53:00;;;;;;;3.72;3.00;;;21.70;99.90;;;;;;5074772;28;20044;-40
2023/09/08 06:55:26;;;;;;;4.90;3.08;;;21.70;99.90;;;;;;5074216;28;20438;-39
2023/09/08 06:57:51;;;;;;;9.77;3.30;;;21.70;99.90;;;;;;5074238;28;20100;-39
2023/09/08 07:00:20;;;;;;;3.63;2.92;;;21.70;99.90;;;;;;5074392;28;20032;-42
2023/09/08 07:02:46;;;;;;;3.97;2.80;;;21.70;99.90;;;;;;5074474;28;20221;-39
2023/09/08 07:05:11;;;;;;;3.20;2.83;;;21.70;99.90;;;;;;5073537;28;20031;-39
2023/09/08 07:07:38;;;;;;;3.97;2.97;;;21.70;99.90;;;;;;5074750;28;20021;-42
2023/09/08 07:10:07;;;;;;;2.42;2.22;;;21.70;99.90;;;;;;5073612;28;20421;-43
2023/09/08 07:12:36;;;;;;;2.80;2.50;;;21.70;99.90;;;;;;5074418;28;20055;-40
2023/09/08 07:15:04;;;;;;;3.20;2.78;;;21.70;99.90;;;;;;5074000;28;20099;-43
2023/09/08 07:17:30;;;;;;;8.27;4.20;;;21.70;99.90;;;;;;5056088;28;20030;-45
2023/09/08 07:19:55;;;;;;;9.93;3.97;;;21.70;99.90;;;;;;5073547;28;20036;-43
2023/09/08 07:22:21;;;;;;;8.70;4.07;;;21.50;99.90;;;;;;5074030;28;20056;-40
2023/09/08 07:24:46;;;;;;;8.85;4.22;;;21.50;99.90;;;;;;5073253;28;20020;-39
2023/09/08 07:27:15;;;;;;;9.10;4.25;;;21.50;99.90;;;;;;5073487;28;20347;-41
2023/09/08 07:29:41;;;;;;;7.80;3.47;;;21.50;99.90;;;;;;5073132;28;20086;-37
2023/09/08 07:32:08;;;;;;;9.10;4.25;;;21.60;99.90;;;;;;5073265;28;20020;-36
2023/09/08 07:34:33;;;;;;;7.45;4.13;;;21.60;99.90;;;;;;5073143;28;20560;-40
2023/09/08 07:37:00;;;;;;;10.98;4.32;;;21.60;99.90;;;;;;5071764;28;20136;-38
2023/09/08 07:39:26;;;;;;;7.65;4.30;;;21.70;99.90;;;;;;5073010;28;20025;-39
2023/09/08 07:41:53;;;;;;;7.78;4.38;;;21.70;99.90;;;;;;5073276;28;20021;-39
2023/09/08 07:44:19;;;;;;;8.43;4.00;;;21.80;99.90;;;;;;5072996;28;20062;-39
2023/09/08 07:46:45;;;;;;;5.43;3.45;;;21.80;99.90;;;;;;5073506;28;20023;-39
2023/09/08 07:49:11;;;;;;;4.47;3.75;;;21.80;99.90;;;;;;5072952;28;20017;-41
2023/09/08 07:51:37;;;;;;;5.57;3.70;;;21.80;99.90;;;;;;5072855;28;20054;-41
2023/09/08 07:54:04;;;;;;;4.13;3.58;;;21.90;99.90;;;;;;5073001;28;20371;-42
2023/09/08 07:56:29;;;;;;;4.85;3.53;;;21.80;99.90;;;;;;5072947;28;20069;-38
2023/09/08 07:58:55;;;;;;;10.18;3.45;;;21.90;99.90;;;;;;5073141;28;20501;-38
2023/09/08 08:01:21;;;;;;;8.05;3.50;;;21.90;99.90;;;;;;5072872;28;20079;-38
2023/09/08 08:03:46;;;;;;;5.65;3.60;;;21.90;99.90;;;;;;5072826;28;20024;-40
2023/09/08 08:06:12;;;;;;;4.72;3.67;;;21.90;99.90;;;;;;5072550;28;20166;-39
2023/09/08 08:08:38;;;;;;;5.18;3.47;;;21.90;99.90;;;;;;5072825;28;20035;-44
2023/09/08 08:11:12;;;;;;;6.28;3.45;;;22.00;99.90;;;;;;5072295;28;20035;-36
2023/09/08 08:13:38;;;;;;;4.88;3.50;;;22.00;99.90;;;;;;5072645;28;20027;-36
2023/09/08 08:16:04;;;;;;;3.80;3.40;;;22.00;99.90;;;;;;5072590;28;20033;-37
2023/09/08 08:18:29;;;;;;;3.92;3.35;;;22.00;99.90;;;;;;5072208;28;20039;-40
2023/09/08 08:20:55;;;;;;;5.10;3.25;;;22.00;99.90;;;;;;5072006;28;20039;-43
2023/09/08 08:23:21;;;;;;;4.57;3.58;;;22.10;99.90;;;;;;5072365;28;20044;-40
2023/09/08 08:25:48;;;;;;;5.20;3.17;;;22.10;99.90;;;;;;5072488;28;20446;-38
2023/09/08 08:28:14;;;;;;;4.85;3.47;;;22.10;99.90;;;;;;5072180;28;20108;-39
2023/09/08 08:30:40;;;;;;;6.03;3.55;;;22.10;99.90;;;;;;5072309;28;20036;-40
2023/09/08 08:33:05;;;;;;;4.38;3.00;;;22.10;99.90;;;;;;5072391;28;20024;-40
2023/09/08 08:35:31;;;;;;;6.55;3.50;;;22.10;99.90;;;;;;5072227;28;20070;-44
2023/09/08 08:38:00;;;;;;;4.38;3.05;;;22.10;99.90;;;;;;5072166;28;20462;-38
2023/09/08 08:40:26;;;;;;;3.47;3.05;;;22.20;99.90;;;;;;5073057;28;20391;-37
2023/09/08 08:42:57;;;;;;;4.65;3.38;;;22.20;99.90;;;;;;5072000;28;20023;-38
2023/09/08 08:45:26;;;;;;;3.67;3.10;;;22.10;99.90;;;;;;5073812;28;20024;-39
2023/09/08 08:47:54;;;;;;;10.38;4.95;;;22.20;99.90;;;;;;5054415;28;20036;-40
2023/09/08 08:50:20;;;;;;;11.07;5.05;;;22.20;99.90;;;;;;5070419;28;20032;-38
2023/09/08 08:52:47;;;;;;;17.67;4.88;;;22.40;99.90;;;;;;5072341;28;20028;-38
2023/09/08 08:55:15;;;;;;;8.10;4.72;;;22.50;99.90;;;;;;5072067;28;20035;-35
2023/09/08 08:57:41;;;;;;;6.00;4.28;;;22.50;99.90;;;;;;5071745;28;20105;-35
2023/09/08 09:00:11;;;;;;;6.63;4.57;;;22.50;99.90;;;;;;5070019;28;20025;-38
2023/09/08 09:02:41;;;;;;;7.90;4.70;;;22.50;99.90;;;;;;5071563;28;20072;-35
2023/09/08 09:05:16;;;;;;;6.50;4.60;;;22.50;99.90;;;;;;5071488;28;20109;-36
2023/09/08 09:07:42;;;;;;;5.18;4.45;;;22.50;99.90;;;;;;5070330;28;20104;-35
2023/09/08 09:10:09;;;;;;;7.70;4.88;;;22.50;99.90;;;;;;5071321;28;20028;-36
2023/09/08 09:12:38;;;;;;;9.05;4.68;;;22.40;99.90;;;;;;5071500;28;20025;-36
2023/09/08 09:15:04;;;;;;;5.75;4.30;;;22.50;99.90;;;;;;5071350;28;20024;-37
2023/09/08 09:17:32;;;;;;;4.95;4.45;;;22.40;99.90;;;;;;5071637;28;20051;-36
2023/09/08 09:20:20;;;;;;;5.75;4.13;;;22.50;99.90;;;;;;5070974;28;20033;-35
2023/09/08 09:22:46;;;;;;;5.15;4.13;;;22.50;99.90;;;;;;5071332;28;20024;-39
2023/09/08 09:25:31;;;;;;;4.95;4.22;;;22.50;99.90;;;;;;5071243;28;20210;-39
2023/09/08 09:27:58;;;;;;;5.45;4.25;;;22.50;99.90;;;;;;5070839;28;20017;-39
2023/09/08 09:30:25;;;;;;;7.88;4.30;;;22.50;99.90;;;;;;5070967;28;20386;-38
2023/09/08 09:33:04;;;;;;;4.95;4.45;;;22.50;99.90;;;;;;5071226;28;20105;-39
2023/09/08 09:35:53;;;;;;;4.90;4.25;;;22.50;99.90;;;;;;5071165;28;20020;-39
2023/09/08 09:38:20;;;;;;;5.18;3.53;;;22.50;99.90;;;;;;5071275;28;20058;-39
2023/09/08 09:40:47;;;;;;;5.00;3.90;;;22.50;99.90;;;;;;5070938;28;20056;-41
2023/09/08 09:43:14;;;;;;;4.97;4.07;;;22.50;99.90;;;;;;5071058;28;20035;-37
2023/09/08 09:45:41;;;;;;;5.07;3.50;;;22.50;99.90;;;;;;5071619;28;20490;-41
2023/09/08 09:48:08;;;;;;;3.92;3.50;;;22.50;99.90;;;;;;5071042;28;20021;-38
2023/09/08 09:50:36;;;;;;;4.43;4.03;;;22.50;99.90;;;;;;5070875;28;20056;-39
2023/09/08 09:53:11;;;;;;;3.70;3.40;;;22.50;99.90;;;;;;5070997;28;20030;-39
2023/09/08 09:55:41;;;;;;;4.35;3.70;;;22.50;99.90;;;;;;5070979;28;20020;-39
2023/09/08 09:58:07;;;;;;;5.03;3.70;;;22.50;99.90;;;;;;5071126;28;20375;-41
2023/09/08 10:00:35;;;;;;;5.05;4.28;;;22.50;99.90;;;;;;5070661;28;20039;-37
2023/09/08 10:03:01;;;;;;;4.47;3.50;;;22.50;99.90;;;;;;5070917;28;20024;-42
2023/09/08 10:05:27;;;;;;;4.22;3.40;;;22.50;99.90;;;;;;5070881;28;20031;-39
2023/09/08 10:07:53;;;;;;;5.22;3.83;;;22.50;99.90;;;;;;5070928;28;20021;-42
2023/09/08 10:10:21;;;;;;;4.38;3.58;;;22.50;99.90;;;;;;5070751;28;20032;-40
2023/09/08 10:12:52;;;;;;;3.75;3.20;;;22.50;99.90;;;;;;5070861;28;20031;-44
2023/09/08 10:15:22;;;;;;;4.53;3.88;;;22.60;99.90;;;;;;5070731;28;20025;-39
2023/09/08 10:17:57;;;;;;;6.13;3.72;;;22.60;99.90;;;;;;5070713;28;20025;-42
2023/09/08 10:20:24;;;;;;;5.35;3.80;;;22.60;99.90;;;;;;5070524;28;20021;-39
2023/09/08 10:22:55;;;;;;;3.97;3.58;;;22.60;99.90;;;;;;5070854;28;20036;-39
2023/09/08 10:25:24;;;;;;;5.05;3.50;;;22.60;99.90;;;;;;5070829;28;20404;-40
2023/09/08 10:27:50;;;;;;;4.97;3.78;;;22.60;99.90;;;;;;5070686;28;20033;-39
2023/09/08 10:30:17;;;;;;;5.40;3.60;;;22.60;99.90;;;;;;5070517;28;20543;-38
2023/09/08 10:32:43;;;;;;;4.57;3.45;;;22.60;99.90;;;;;;5070634;28;20063;-41
2023/09/08 10:35:10;;;;;;;3.70;3.30;;;22.60;99.90;;;;;;5070643;28;20482;-39
2023/09/08 10:37:36;;;;;;;4.03;3.25;;;22.60;99.90;;;;;;5071054;28;20035;-43
2023/09/08 10:40:24;;;;;;;4.75;3.65;;;22.60;99.90;;;;;;5072463;28;20397;-39
2023/09/08 10:43:06;;;;;;;5.38;4.05;;;22.60;99.90;;;;;;5074158;28;20013;-39
2023/09/08 10:45:31;;;;;;;4.28;3.40;;;22.60;99.90;;;;;;5074386;28;20430;-39
2023/09/08 10:47:57;;;;;;;5.47;3.08;;;22.60;99.90;;;;;;5074097;28;20104;-38
2023/09/08 10:50:42;;;;;;;4.80;3.38;;;22.70;99.90;;;;;;5073904;28;20029;-42
2023/09/08 10:53:17;;;;;;;6.22;3.60;;;22.60;99.90;;;;;;5074175;28;20033;-41
2023/09/08 10:55:47;;;;;;;4.35;3.38;;;22.60;99.90;;;;;;5073972;28;20039;-41
2023/09/08 10:58:28;;;;;;;4.90;3.40;;;22.70;99.90;;;;;;5074058;28;20116;-41
2023/09/08 11:00:56;;;;;;;4.55;3.30;;;22.60;99.90;;;;;;5073681;28;20519;-40
2023/09/08 11:03:43;;;;;;;4.22;3.30;;;22.70;99.90;;;;;;5073701;28;20036;-37
2023/09/08 11:06:09;;;;;;;3.55;3.22;;;22.70;99.90;;;;;;5073785;28;20021;-35
2023/09/08 11:08:41;;;;;;;4.57;3.80;;;22.70;99.90;;;;;;5073743;28;20031;-35
2023/09/08 11:11:07;;;;;;;3.30;3.00;;;22.70;99.90;;;;;;5073703;28;20056;-37
2023/09/08 11:13:36;;;;;;;3.85;3.42;;;22.70;99.90;;;;;;5073842;28;20070;-37
2023/09/08 11:16:04;;;;;;;5.18;3.63;;;22.70;99.90;;;;;;5074022;28;20063;-35
2023/09/08 11:18:34;;;;;;;4.38;3.25;;;22.70;99.90;;;;;;5073635;28;20090;-35
2023/09/08 11:21:02;;;;;;;3.92;2.97;;;22.70;99.90;;;;;;5072506;28;20059;-37
2023/09/08 11:23:28;;;;;;;6.13;3.10;;;22.70;99.90;;;;;;5074154;28;20025;-36
2023/09/08 11:25:55;;;;;;;3.75;3.22;;;22.70;99.90;;;;;;5073603;28;20485;-35
2023/09/08 11:28:25;;;;;;;3.53;3.22;;;22.70;99.90;;;;;;5073336;28;20024;-37
2023/09/08 11:30:51;;;;;;;3.90;3.38;;;22.70;99.90;;;;;;5073308;28;20504;-36
2023/09/08 11:33:18;;;;;;;3.80;3.30;;;22.70;99.90;;;;;;5073251;28;20052;-35
2023/09/08 11:35:47;;;;;;;4.38;3.65;;;22.80;99.90;;;;;;5073199;28;20037;-35
2023/09/08 11:38:13;;;;;;;3.47;3.17;;;22.80;99.90;;;;;;5073385;28;20184;-35
2023/09/08 11:40:40;;;;;;;4.55;3.28;;;22.80;99.90;;;;;;5072969;28;20020;-36
2023/09/08 11:43:06;;;;;;;3.38;3.00;;;22.80;99.90;;;;;;5071891;28;20115;-35
2023/09/08 11:45:35;;;;;;;6.78;3.30;;;22.80;99.90;;;;;;5073033;28;20071;-36
2023/09/08 11:48:01;;;;;;;3.20;2.90;;;22.80;99.90;;;;;;5072926;28;20013;-36
2023/09/08 11:50:26;;;;;;;4.03;3.40;;;22.80;99.90;;;;;;5072460;28;20101;-35
2023/09/08 11:52:54;;;;;;;4.63;3.33;;;22.80;99.90;;;;;;5072903;28;20048;-36
2023/09/08 11:55:22;;;;;;;3.90;3.20;;;22.80;99.90;;;;;;5072855;28;20032;-37
2023/09/08 11:57:57;;;;;;;3.80;3.13;;;22.80;99.90;;;;;;5073341;28;20031;-35
2023/09/08 12:00:25;;;;;;;3.95;3.20;;;22.80;99.90;;;;;;5072946;28;20063;-36
2023/09/08 12:02:51;;;;;;;4.45;3.42;;;22.80;99.90;;;;;;5072986;28;20509;-35
2023/09/08 12:05:22;;;;;;;4.28;2.88;;;22.80;99.90;;;;;;5072846;28;20021;-36
2023/09/08 12:07:53;;;;;;;3.88;3.22;;;22.80;99.90;;;;;;5073190;28;20507;-35
2023/09/08 12:10:19;;;;;;;3.67;3.05;;;22.80;99.90;;;;;;5071761;28;20031;-38
2023/09/08 12:12:54;;;;;;;3.30;3.00;;;22.80;99.90;;;;;;5073009;28;20397;-39
2023/09/08 12:15:37;;;;;;;3.95;3.10;;;22.80;99.90;;;;;;5072939;28;20075;-39
2023/09/08 12:18:08;;;;;;;3.97;3.03;;;22.80;99.90;;;;;;5072643;28;20293;-37
2023/09/08 12:20:38;;;;;;;3.50;3.20;;;22.80;99.90;;;;;;5073297;28;20035;-35
2023/09/08 12:23:19;;;;;;;3.25;2.95;;;22.80;99.90;;;;;;5073064;28;20389;-36
2023/09/08 12:25:52;;;;;;;3.60;3.10;;;22.80;99.90;;;;;;5072918;28;20025;-38
2023/09/08 12:28:22;;;;;;;3.70;3.20;;;22.80;99.90;;;;;;5072706;28;20523;-38
2023/09/08 12:30:53;;;;;;;3.53;2.90;;;22.80;99.90;;;;;;5070719;28;20051;-38
2023/09/08 12:33:21;;;;;;;3.45;3.15;;;22.80;99.90;;;;;;5072845;28;20025;-39
2023/09/08 12:35:52;;;;;;;3.55;3.00;;;22.80;99.90;;;;;;5072808;28;20039;-38
2023/09/08 12:38:20;;;;;;;4.18;3.05;;;22.90;99.90;;;;;;5072422;28;20045;-38
2023/09/08 12:40:46;;;;;;;3.45;3.00;;;22.90;99.90;;;;;;5071762;28;20379;-38
2023/09/08 12:43:11;;;;;;;3.53;3.22;;;22.90;99.90;;;;;;5073037;28;20025;-38
2023/09/08 12:45:38;;;;;;;3.85;2.97;;;22.90;99.90;;;;;;5072737;28;20093;-38